Athens Ben Epps Airport
KAHN : now visible

Airfield :











YOU CAN JOIN US ON...

 
LOGIN :

Register | Disclaimer

   EN    FR    IT 

 









Legend :    VFR   Marginal VFR   IFR   Intensive IFR   Very Intensive IFR
Visi :
Ceiling :
>= 8 km
>= 3000ft
5 to 8 km
1000 to 3000 ft
1500m to 5 km
500 to 1000 ft
800 to 1500m
200 to 500 ft
< 800m
< 200 ft
Symbols :   Thunderstorms  Fog  Heavy snow  Heavy precipitations  Wind > 20 kt






- Airport Elevation : 808 ft
- IATA code : AHN


KAHN - Athens Ben Epps

CURRENT METAR :
  • 120551Z AUTO 00000KT 10SM SCT042 BKN075 OVC095 12/10 A2999 RMK AO2 RAE38 SLP154 P0002 60002 T01220100 10144 20117 58015 $

EXPIRED METARs :
  • 120451Z AUTO 24003KT 10SM -RA BKN050 OVC070 13/08 A3002 RMK AO2 RAB43 SLP164 P0000 T01280083 402060033 $
  • 120351Z AUTO 00000KT 10SM BKN070 BKN120 13/08 A3003 RMK AO2 SLP169 T01280083 $

TAF KAHN
Valid from the 12 at 06:00 until the 13 at 06:00 UTC


120606Z 1206/1306 00000KT P6SM -SHRA SCT040 BKN050 OVC100
FM120900 VRB03KT 4SM RA BR SCT020 OVC030
FM121100 29006KT 3SM RA BR SCT007 BKN010 OVC015
FM121300 30009KT 5SM RA BR BKN007 OVC015
FM121600 31011G19KT P6SM OVC050
FM122000 32010KT P6SM SKC



MET'MAP, your aeronautical weather chart ! - Copyright ORBIFLY December 2007 - Disclaimer

ORBIFLY MET'MAP TEAM :

Programming & Development : Alexandra Zaïnal
Concept & Development : Baudouin d'Aumeries
Co-Development & Prog : Marc-Olivier Méhu
Technical & hardware support : Manuel Goepfert

Contact : metmap@orbifly.com




SOURCES & CREDITS :

   NOAA       Earth
Advisory